Time;durP1;ratioP1;P1;durP2;ratioP2;P2;SDS_P1;SDS_P2;PMS_P1;PMS_P2;Temp;Humidity;BMP_temperature;BMP_pressure;BME280_temperature;BME280_humidity;BME280_pressure;Samples;Min_cycle;Max_cycle;Signal;HPM_P1;HPM_P2
2021/07/24 00:01:04;;;;;;;5.90;3.45;;;;;;;16.59;61.04;99236.88;5058844;28;20037;-56
2021/07/24 00:03:30;;;;;;;3.92;3.30;;;;;;;16.54;61.11;99231.16;5049861;28;20025;-58
2021/07/24 00:05:56;;;;;;;4.22;3.47;;;;;;;16.53;61.21;99241.16;5060680;28;20131;-58
2021/07/24 00:08:22;;;;;;;6.30;3.70;;;;;;;16.47;61.40;99234.59;5054217;28;20029;-59
2021/07/24 00:10:47;;;;;;;3.55;2.88;;;;;;;16.43;61.26;99235.97;5064847;28;20495;-57
2021/07/24 00:13:13;;;;;;;4.60;3.35;;;;;;;16.42;61.56;99228.88;5054042;28;20065;-57
2021/07/24 00:15:39;;;;;;;4.15;3.42;;;;;;;16.36;61.97;99235.81;5056325;28;20039;-58
2021/07/24 00:18:05;;;;;;;7.70;3.78;;;;;;;16.32;61.95;99239.91;5054222;28;20091;-59
2021/07/24 00:20:30;;;;;;;3.97;3.08;;;;;;;16.27;61.93;99246.84;5066712;28;20060;-59
2021/07/24 00:22:56;;;;;;;5.10;3.10;;;;;;;16.20;62.16;99247.53;5057643;28;20082;-58
2021/07/24 00:25:22;;;;;;;5.57;3.83;;;;;;;16.11;62.22;99229.66;5054582;28;20086;-59
2021/07/24 00:27:48;;;;;;;6.43;3.53;;;;;;;16.10;62.63;99238.78;5059602;28;20389;-57
2021/07/24 00:30:14;;;;;;;5.15;3.33;;;;;;;16.05;62.53;99236.63;5053958;28;20059;-56
2021/07/24 00:32:44;;;;;;;4.35;3.10;;;;;;;16.03;62.76;99237.81;5064625;28;20033;-58
2021/07/24 00:35:10;;;;;;;6.63;3.50;;;;;;;15.98;62.79;99242.88;5058803;28;20049;-60
2021/07/24 00:37:36;;;;;;;9.02;3.85;;;;;;;15.93;62.97;99235.31;5058696;28;20033;-57
2021/07/24 00:40:01;;;;;;;4.47;3.22;;;;;;;15.90;63.42;99239.19;5066097;28;20028;-56
2021/07/24 00:42:30;;;;;;;8.73;3.50;;;;;;;15.73;63.35;99226.72;5053466;28;20464;-56
2021/07/24 00:45:00;;;;;;;5.85;3.13;;;;;;;15.83;63.15;99240.88;5063106;28;20031;-58
2021/07/24 00:47:40;;;;;;;4.88;3.70;;;;;;;15.88;62.94;99251.16;5061291;28;20059;-58
2021/07/24 00:50:10;;;;;;;8.35;3.63;;;;;;;15.76;63.90;99242.56;5054012;28;20055;-58
2021/07/24 00:52:40;;;;;;;8.75;3.63;;;;;;;15.72;63.70;99246.63;5037305;28;20032;-57
2021/07/24 00:55:06;;;;;;;5.22;3.65;;;;;;;15.63;63.84;99241.22;5060043;28;20070;-57
2021/07/24 00:57:31;;;;;;;7.13;3.47;;;;;;;15.56;64.22;99240.25;5053283;28;20085;-55
2021/07/24 00:59:57;;;;;;;7.97;2.97;;;;;;;15.52;64.33;99238.03;5055475;28;20036;-57
2021/07/24 01:02:22;;;;;;;5.88;3.20;;;;;;;15.40;64.73;99232.16;5066856;28;20044;-55
2021/07/24 01:04:48;;;;;;;5.15;3.10;;;;;;;15.36;65.06;99243.28;5055882;28;20035;-56
2021/07/24 01:07:14;;;;;;;4.90;2.97;;;;;;;15.34;65.20;99248.00;5057395;28;20393;-58
2021/07/24 01:09:40;;;;;;;3.80;3.13;;;;;;;15.28;65.32;99254.09;5070171;28;20035;-57
2021/07/24 01:12:06;;;;;;;5.93;2.95;;;;;;;15.27;65.79;99259.63;5054289;28;20037;-56
2021/07/24 01:14:32;;;;;;;5.25;2.95;;;;;;;15.21;65.50;99250.41;5036828;28;20039;-57
2021/07/24 01:16:58;;;;;;;8.75;3.30;;;;;;;15.19;65.49;99255.09;5066564;28;20036;-58
2021/07/24 01:19:24;;;;;;;4.63;2.78;;;;;;;15.18;65.42;99259.66;5059267;28;20473;-58
2021/07/24 01:21:49;;;;;;;6.60;3.10;;;;;;;15.17;65.37;99268.75;5064358;28;20027;-58
2021/07/24 01:24:15;;;;;;;3.70;2.90;;;;;;;15.14;65.60;99263.69;5053917;28;20053;-58
2021/07/24 01:26:44;;;;;;;4.28;2.97;;;;;;;15.14;65.36;99266.38;5063365;28;20045;-56
2021/07/24 01:29:22;;;;;;;6.15;3.08;;;;;;;15.21;65.31;99272.78;5046820;28;20048;-56
2021/07/24 01:31:48;;;;;;;5.53;3.03;;;;;;;14.98;65.42;99252.88;5056599;28;20029;-56
2021/07/24 01:34:14;;;;;;;5.53;3.42;;;;;;;15.16;65.80;99290.47;5066439;28;20079;-56
2021/07/24 01:36:40;;;;;;;8.13;3.28;;;;;;;15.03;65.58;99264.00;5054052;28;20114;-56
2021/07/24 01:39:09;;;;;;;8.35;3.20;;;;;;;15.14;65.66;99285.28;5050495;28;20033;-60
2021/07/24 01:41:34;;;;;;;5.80;3.40;;;;;;;15.16;65.77;99279.69;5058153;28;20060;-56
2021/07/24 01:44:00;;;;;;;4.90;3.40;;;;;;;15.17;65.83;99286.75;5066426;28;20052;-58
2021/07/24 01:46:25;;;;;;;9.63;3.03;;;;;;;15.19;65.41;99288.31;5056433;28;20380;-57
2021/07/24 01:54:27;;;;;;;8.88;3.45;;;;;;;15.43;64.81;99304.66;5069609;28;20322;-57
2021/07/24 01:56:55;;;;;;;5.20;2.72;;;;;;;15.45;64.87;99299.94;5059788;28;20083;-57
2021/07/24 01:59:24;;;;;;;6.97;3.67;;;;;;;15.52;64.94;99295.56;5070549;28;20226;-57
2021/07/24 02:01:51;;;;;;;5.13;3.17;;;;;;;15.55;64.81;99292.53;5057675;28;20055;-52
2021/07/24 02:04:21;;;;;;;6.68;3.38;;;;;;;15.59;64.13;99291.16;5069820;28;20534;-57
2021/07/24 02:06:49;;;;;;;4.85;3.10;;;;;;;15.68;64.23;99293.88;5058896;28;20021;-58
2021/07/24 02:09:16;;;;;;;4.45;3.17;;;;;;;15.70;64.04;99289.16;5059672;28;20032;-56
2021/07/24 02:11:44;;;;;;;5.32;3.30;;;;;;;15.73;64.17;99291.50;5059308;28;20040;-58
2021/07/24 02:14:09;;;;;;;3.22;2.90;;;;;;;15.78;63.97;99297.22;5056543;28;20044;-57
2021/07/24 02:16:35;;;;;;;5.93;2.85;;;;;;;15.82;63.83;99295.88;5069353;28;20032;-57
2021/07/24 02:19:01;;;;;;;5.65;3.30;;;;;;;15.88;63.53;99297.91;5058908;28;20032;-56
2021/07/24 02:21:31;;;;;;;5.10;3.17;;;;;;;15.97;62.93;99300.59;5055627;28;20115;-59
2021/07/24 02:24:11;;;;;;;7.50;3.00;;;;;;;15.90;62.59;99276.97;5058140;28;20025;-59
2021/07/24 02:26:42;;;;;;;6.63;2.78;;;;;;;16.09;62.54;99293.81;5050943;28;20021;-58
2021/07/24 02:29:08;;;;;;;4.05;2.30;;;;;;;16.12;62.15;99298.84;5060738;28;20090;-58
2021/07/24 02:31:33;;;;;;;4.25;2.65;;;;;;;16.16;62.10;99300.22;5061464;28;20045;-57
2021/07/24 02:33:59;;;;;;;3.22;2.40;;;;;;;16.18;61.89;99300.88;5057562;28;20057;-57
2021/07/24 02:36:24;;;;;;;6.40;2.60;;;;;;;16.20;61.80;99303.41;5068242;28;20436;-58
2021/07/24 02:38:50;;;;;;;3.90;3.17;;;;;;;16.18;61.55;99300.03;5045540;28;20057;-56
2021/07/24 02:41:15;;;;;;;4.38;2.58;;;;;;;16.21;61.40;99303.25;5061150;28;20032;-59
2021/07/24 02:43:41;;;;;;;4.07;2.80;;;;;;;16.24;61.26;99307.44;5059512;28;20400;-56
2021/07/24 02:46:06;;;;;;;4.80;3.00;;;;;;;16.31;61.09;99318.41;5054759;28;20033;-53
2021/07/24 02:48:32;;;;;;;3.72;2.58;;;;;;;16.40;60.57;99317.38;5041271;28;20025;-57
2021/07/24 02:50:57;;;;;;;4.75;2.75;;;;;;;16.47;60.50;99323.75;5065499;28;20074;-55
2021/07/24 02:53:22;;;;;;;5.20;2.90;;;;;;;16.49;60.05;99308.19;5062689;28;20365;-58
2021/07/24 02:55:48;;;;;;;5.25;2.83;;;;;;;16.53;59.75;99311.41;5058046;28;20433;-57
2021/07/24 02:58:13;;;;;;;4.20;2.55;;;;;;;16.60;59.63;99323.19;5051069;28;20485;-56
2021/07/24 03:00:39;;;;;;;6.57;2.70;;;;;;;16.66;59.31;99318.94;5067872;28;20017;-54
2021/07/24 03:03:04;;;;;;;3.83;2.58;;;;;;;16.76;58.94;99332.25;5059903;28;20455;-57
2021/07/24 03:05:30;;;;;;;4.50;2.45;;;;;;;16.83;58.46;99330.53;5061173;28;20439;-58
2021/07/24 03:07:55;;;;;;;3.40;2.63;;;;;;;16.89;58.31;99328.97;5059784;28;20021;-60
2021/07/24 03:10:21;;;;;;;3.30;2.25;;;;;;;16.94;57.79;99323.88;5067318;28;20025;-58
2021/07/24 03:12:46;;;;;;;2.40;2.10;;;;;;;17.01;57.56;99324.88;5056755;28;20028;-58
2021/07/24 03:15:11;;;;;;;4.32;2.65;;;;;;;17.06;57.49;99327.88;5063075;28;20108;-57
2021/07/24 03:17:37;;;;;;;3.60;2.58;;;;;;;17.12;57.04;99320.91;5064762;28;20059;-54
2021/07/24 03:20:05;;;;;;;5.97;2.35;;;;;;;17.19;56.56;99329.97;5053565;28;20078;-55
2021/07/24 03:22:30;;;;;;;4.28;2.10;;;;;;;17.26;56.73;99322.00;5068164;28;20047;-58
2021/07/24 03:24:57;;;;;;;4.10;2.50;;;;;;;17.43;56.22;99330.00;5058259;28;20028;-59
2021/07/24 03:27:23;;;;;;;4.07;2.47;;;;;;;17.44;55.76;99331.69;5061438;28;20064;-57
2021/07/24 03:29:48;;;;;;;5.03;2.40;;;;;;;17.45;55.85;99336.06;5043743;28;20045;-56
2021/07/24 03:32:13;;;;;;;3.30;2.03;;;;;;;17.38;55.88;99335.13;5065530;28;20076;-58
2021/07/24 03:34:39;;;;;;;3.08;2.30;;;;;;;17.37;55.97;99345.09;5055705;28;20656;-55
2021/07/24 03:37:04;;;;;;;4.85;2.40;;;;;;;17.33;55.99;99341.88;5064088;28;20135;-57
2021/07/24 03:39:30;;;;;;;5.90;2.80;;;;;;;17.27;56.48;99356.16;5054718;28;20036;-56
2021/07/24 03:41:55;;;;;;;4.72;2.33;;;;;;;17.30;55.97;99365.78;5060094;28;20039;-59
2021/07/24 03:44:21;;;;;;;4.85;2.47;;;;;;;17.33;55.69;99366.25;5054546;28;20043;-53
2021/07/24 03:46:46;;;;;;;3.85;2.22;;;;;;;17.37;55.49;99361.31;5065635;28;20028;-56
2021/07/24 03:49:11;;;;;;;5.30;2.70;;;;;;;17.36;54.97;99360.50;5059210;28;20062;-57
2021/07/24 03:51:38;;;;;;;3.17;2.20;;;;;;;17.45;54.96;99371.25;5058458;28;20037;-58
2021/07/24 03:54:04;;;;;;;5.25;2.10;;;;;;;17.43;54.83;99363.31;5067177;28;20032;-59
2021/07/24 03:56:29;;;;;;;4.00;2.47;;;;;;;17.46;54.31;99387.28;5054377;28;20066;-56
2021/07/24 03:58:54;;;;;;;4.13;2.45;;;;;;;17.46;54.10;99381.06;5059866;28;20029;-58
2021/07/24 04:01:23;;;;;;;4.65;2.13;;;;;;;17.39;53.51;99377.41;5037702;28;20033;-58
2021/07/24 04:03:48;;;;;;;2.58;2.03;;;;;;;17.50;53.28;99399.47;5045505;28;20091;-61
2021/07/24 04:06:26;;;;;;;2.40;2.00;;;;;;;17.64;53.51;99400.56;5042491;28;20036;-61
2021/07/24 04:08:58;;;;;;;2.78;2.10;;;;;;;17.66;53.26;99403.06;5040390;28;20036;-61
2021/07/24 04:11:25;;;;;;;2.92;2.00;;;;;;;17.69;52.55;99399.16;5043806;28;20057;-61
2021/07/24 04:13:51;;;;;;;4.45;2.22;;;;;;;17.80;52.20;99401.44;5043006;28;20477;-61
2021/07/24 04:16:17;;;;;;;2.85;2.05;;;;;;;18.03;51.74;99408.72;5050281;28;20039;-60
2021/07/24 04:18:42;;;;;;;3.25;2.20;;;;;;;18.15;51.57;99411.84;5065834;28;20029;-61
2021/07/24 04:21:08;;;;;;;2.75;1.98;;;;;;;18.29;51.13;99407.47;5051372;28;20116;-60
2021/07/24 04:23:33;;;;;;;2.92;2.05;;;;;;;18.29;50.69;99383.06;5058241;28;20090;-59
2021/07/24 04:26:00;;;;;;;3.38;1.92;;;;;;;18.62;50.87;99399.00;5066221;28;20020;-62
2021/07/24 04:28:26;;;;;;;3.60;2.13;;;;;;;18.87;49.37;99399.53;5053763;28;20404;-61
2021/07/24 04:30:51;;;;;;;5.18;2.20;;;;;;;19.11;48.91;99416.56;5062679;28;20119;-60
2021/07/24 04:33:17;;;;;;;4.75;2.03;;;;;;;19.25;48.22;99411.31;5059646;28;20118;-61
2021/07/24 04:35:47;;;;;;;3.97;2.20;;;;;;;19.59;47.72;99436.94;5063885;28;20058;-60
2021/07/24 04:38:14;;;;;;;3.22;1.85;;;;;;;19.69;46.52;99417.63;5053521;28;20391;-60
2021/07/24 04:40:39;;;;;;;4.15;2.03;;;;;;;19.99;45.54;99431.94;5062645;28;20025;-61
2021/07/24 04:43:05;;;;;;;3.92;2.00;;;;;;;20.19;44.90;99434.00;5044956;28;20044;-59
2021/07/24 04:45:31;;;;;;;3.25;2.20;;;;;;;20.31;44.74;99439.72;5059199;28;20048;-60
2021/07/24 04:47:56;;;;;;;7.70;1.85;;;;;;;20.35;44.40;99430.13;5064528;28;20111;-61
2021/07/24 04:50:22;;;;;;;2.17;1.80;;;;;;;20.48;44.61;99441.09;5053549;28;20029;-61
2021/07/24 04:52:48;;;;;;;4.88;1.77;;;;;;;20.65;43.97;99432.63;5047829;28;20031;-63
2021/07/24 04:55:14;;;;;;;3.03;1.67;;;;;;;20.72;43.70;99436.22;5057280;28;20040;-60
2021/07/24 04:57:40;;;;;;;1.67;1.58;;;;;;;20.89;43.58;99430.50;5059088;28;20562;-60
2021/07/24 05:00:10;;;;;;;1.83;1.50;;;;;;;21.18;42.85;99433.97;5053484;28;20144;-61
2021/07/24 05:02:37;;;;;;;2.67;1.30;;;;;;;21.18;42.05;99442.13;5039230;28;20025;-60
2021/07/24 05:05:03;;;;;;;1.85;1.60;;;;;;;21.15;42.31;99446.13;5062925;28;20063;-60
2021/07/24 05:07:31;;;;;;;3.67;1.63;;;;;;;21.05;42.62;99432.88;5061363;28;20078;-61
2021/07/24 05:09:56;;;;;;;3.88;1.40;;;;;;;20.93;42.41;99429.06;5069887;28;20078;-63
2021/07/24 05:12:22;;;;;;;3.60;1.75;;;;;;;20.92;42.22;99438.25;5051038;28;20029;-61
2021/07/24 05:14:47;;;;;;;2.80;1.55;;;;;;;20.98;42.22;99437.47;5064513;28;20032;-60
2021/07/24 05:17:14;;;;;;;3.53;1.65;;;;;;;21.00;42.13;99435.38;5058825;28;20033;-60
2021/07/24 05:19:44;;;;;;;1.75;1.50;;;;;;;21.05;42.26;99448.38;5056822;28;20103;-60
2021/07/24 05:22:13;;;;;;;2.17;1.60;;;;;;;21.07;42.12;99441.69;5065825;28;20039;-61
2021/07/24 05:24:46;;;;;;;3.25;1.70;;;;;;;21.14;42.57;99449.91;5039022;28;20194;-60
2021/07/24 05:27:13;;;;;;;3.22;1.70;;;;;;;21.08;41.79;99443.38;5042723;28;20037;-61
2021/07/24 05:29:39;;;;;;;2.15;1.70;;;;;;;21.05;41.98;99443.78;5040282;28;20091;-61
2021/07/24 05:32:05;;;;;;;2.13;1.23;;;;;;;20.87;42.41;99433.44;5042724;28;20425;-60
2021/07/24 05:34:30;;;;;;;4.72;1.70;;;;;;;20.99;41.48;99438.28;5047195;28;20377;-61
2021/07/24 05:36:56;;;;;;;2.70;1.42;;;;;;;20.97;41.67;99443.94;5043672;28;20021;-60
2021/07/24 05:39:21;;;;;;;2.45;1.38;;;;;;;21.02;41.33;99438.75;5054097;28;20547;-61
2021/07/24 05:41:47;;;;;;;2.33;1.35;;;;;;;21.23;41.28;99443.22;5041386;28;20108;-61
2021/07/24 05:44:14;;;;;;;1.77;1.50;;;;;;;21.48;39.44;99450.84;5042589;28;20033;-61
2021/07/24 05:46:40;;;;;;;1.90;1.38;;;;;;;21.88;38.88;99449.31;5046885;28;20740;-61
2021/07/24 05:49:06;;;;;;;3.10;1.60;;;;;;;22.36;37.38;99446.38;5057536;28;20048;-61
2021/07/24 05:51:32;;;;;;;3.88;1.40;;;;;;;22.83;36.38;99447.38;5050545;28;20080;-59
2021/07/24 05:53:57;;;;;;;2.65;1.30;;;;;;;23.04;35.17;99422.53;5057541;28;20051;-59
2021/07/24 05:56:22;;;;;;;3.85;1.50;;;;;;;23.43;35.25;99447.19;5053907;28;20036;-59
2021/07/24 05:58:48;;;;;;;3.25;1.50;;;;;;;23.76;34.12;99445.31;5061971;28;20488;-59
2021/07/24 06:01:14;;;;;;;3.05;1.80;;;;;;;24.36;32.73;99455.00;5058155;28;20424;-59
2021/07/24 06:03:40;;;;;;;4.15;1.40;;;;;;;25.06;31.39;99453.88;5063948;28;20135;-58
2021/07/24 06:06:06;;;;;;;1.60;1.50;;;;;;;25.75;30.30;99454.72;5040545;28;20025;-58
2021/07/24 06:08:31;;;;;;;6.28;1.27;;;;;;;26.38;28.32;99457.97;5064213;28;20040;-60
2021/07/24 06:11:00;;;;;;;1.65;1.08;;;;;;;27.15;27.71;99467.16;5030715;28;20030;-60
2021/07/24 06:13:27;;;;;;;1.75;1.30;;;;;;;29.11;24.05;99446.81;5029758;28;20436;-60
2021/07/24 06:15:52;;;;;;;2.83;1.30;;;;;;;29.51;22.00;99384.16;5030948;28;20931;-58
2021/07/24 06:18:18;;;;;;;2.13;1.17;;;;;;;30.34;20.90;99462.16;5029957;28;20156;-59
2021/07/24 06:20:44;;;;;;;1.63;1.17;;;;;;;30.86;20.09;99455.09;5029964;28;20025;-57
2021/07/24 06:23:09;;;;;;;2.13;1.30;;;;;;;32.45;18.63;99455.75;5043332;28;20094;-55
2021/07/24 06:25:35;;;;;;;3.33;1.20;;;;;;;34.78;16.90;99451.69;5046960;28;20152;-55
2021/07/24 06:28:00;;;;;;;2.25;1.25;;;;;;;36.72;14.04;99466.16;5027672;28;20450;-55
2021/07/24 06:30:27;;;;;;;6.05;1.17;;;;;;;38.00;13.03;99460.13;5028784;28;20187;-56
2021/07/24 06:32:52;;;;;;;1.85;1.30;;;;;;;39.44;11.59;99460.16;5032419;28;20378;-58
2021/07/24 06:35:18;;;;;;;4.25;1.50;;;;;;;40.83;10.65;99459.53;5032196;28;20107;-58
2021/07/24 06:37:43;;;;;;;4.75;1.42;;;;;;;41.14;10.37;99466.78;5044061;28;20029;-56
2021/07/24 06:40:10;;;;;;;3.28;1.23;;;;;;;41.95;9.94;99475.16;5052654;28;20033;-57
2021/07/24 06:42:35;;;;;;;3.80;1.60;;;;;;;43.48;8.92;99472.72;5051969;28;20036;-55
2021/07/24 06:45:01;;;;;;;1.25;1.15;;;;;;;45.17;7.68;99474.91;5053462;28;20025;-54
2021/07/24 06:47:27;;;;;;;2.05;1.40;;;;;;;46.39;6.71;99470.19;5051743;28;20056;-56
2021/07/24 06:49:52;;;;;;;1.67;1.05;;;;;;;46.81;5.96;99468.50;5053881;28;20043;-58
2021/07/24 06:52:17;;;;;;;4.75;1.38;;;;;;;46.89;5.55;99471.47;5053036;28;20047;-57
2021/07/24 06:54:43;;;;;;;2.20;1.00;;;;;;;46.99;5.42;99479.34;5051692;28;20074;-57
2021/07/24 06:57:08;;;;;;;4.55;1.15;;;;;;;46.62;5.49;99475.06;5051396;28;20064;-57
2021/07/24 06:59:34;;;;;;;3.85;1.20;;;;;;;45.79;6.13;99448.00;5053931;28;20044;-58
2021/07/24 07:01:59;;;;;;;1.48;1.20;;;;;;;46.01;6.62;99471.88;5052815;28;20448;-58
2021/07/24 07:04:26;;;;;;;1.85;1.15;;;;;;;46.78;6.03;99474.09;5052975;28;20158;-58
2021/07/24 07:06:52;;;;;;;3.38;1.08;;;;;;;46.61;5.30;99470.59;5053446;28;20041;-56
2021/07/24 07:09:17;;;;;;;4.47;1.30;;;;;;;46.92;5.25;99468.69;5039848;28;20029;-57
2021/07/24 07:11:43;;;;;;;3.28;1.65;;;;;;;47.83;4.87;99465.13;5032883;28;20026;-57
2021/07/24 07:14:08;;;;;;;4.53;1.10;;;;;;;47.98;4.75;99476.63;5033023;28;20489;-56
2021/07/24 07:16:34;;;;;;;2.67;1.00;;;;;;;48.53;4.62;99483.75;5033617;28;20022;-57
2021/07/24 07:18:59;;;;;;;3.20;1.30;;;;;;;48.95;4.37;99478.84;5034504;28;20029;-56
2021/07/24 07:21:25;;;;;;;2.75;0.98;;;;;;;48.91;4.21;99480.84;5033086;28;20055;-59
2021/07/24 07:23:50;;;;;;;1.60;1.10;;;;;;;49.38;3.98;99484.00;5032569;28;20488;-58
2021/07/24 07:26:28;;;;;;;2.13;0.90;;;;;;;47.53;5.84;99484.97;5032769;28;20042;-57
2021/07/24 07:28:55;;;;;;;2.85;0.95;;;;;;;42.31;7.77;99490.53;5035016;28;20040;-57
2021/07/24 07:31:22;;;;;;;4.70;1.25;;;;;;;40.44;9.69;99488.34;5052426;28;20068;-55
2021/07/24 07:33:47;;;;;;;2.03;1.25;;;;;;;41.48;8.79;99476.19;5052357;28;20048;-53
2021/07/24 07:36:13;;;;;;;1.88;1.08;;;;;;;43.05;7.40;99471.34;5052812;28;20029;-58
2021/07/24 07:38:39;;;;;;;4.72;1.13;;;;;;;45.11;6.72;99471.53;5052080;28;20476;-57
2021/07/24 07:41:04;;;;;;;4.13;1.40;;;;;;;46.61;5.21;99453.63;5050397;28;20086;-57
2021/07/24 07:43:29;;;;;;;1.33;1.00;;;;;;;47.80;4.88;99477.25;5051253;28;20107;-58
2021/07/24 07:45:56;;;;;;;3.33;1.30;;;;;;;48.26;5.18;99475.38;5052072;28;20025;-56
2021/07/24 07:48:22;;;;;;;1.00;1.00;;;;;;;49.13;4.46;99481.78;5051908;28;20029;-56
2021/07/24 07:50:48;;;;;;;3.58;1.20;;;;;;;48.94;4.84;99480.06;5050219;28;20131;-57
2021/07/24 07:53:13;;;;;;;3.70;0.95;;;;;;;46.26;6.00;99478.06;5051552;28;20033;-58
2021/07/24 07:55:41;;;;;;;1.73;0.80;;;;;;;44.08;7.43;99488.97;5050847;28;20025;-54
2021/07/24 07:58:14;;;;;;;2.13;0.80;;;;;;;44.09;7.69;99493.44;5052328;28;20446;-59
2021/07/24 08:00:40;;;;;;;4.03;0.90;;;;;;;41.57;8.71;99474.13;5047136;28;20445;-57
2021/07/24 08:03:05;;;;;;;2.42;0.90;;;;;;;42.16;8.65;99480.75;5032243;28;20060;-56
2021/07/24 08:05:31;;;;;;;1.23;1.10;;;;;;;43.72;7.88;99485.13;5031625;28;20061;-56
2021/07/24 08:07:56;;;;;;;1.15;0.98;;;;;;;44.35;6.92;99486.50;5031910;28;20037;-56
2021/07/24 08:10:22;;;;;;;3.20;1.20;;;;;;;43.08;7.44;99485.53;5033793;28;20025;-55
2021/07/24 08:12:48;;;;;;;1.92;0.90;;;;;;;39.97;9.66;99497.47;5028387;28;20496;-56
2021/07/24 08:15:13;;;;;;;0.80;0.70;;;;;;;36.86;11.76;99507.16;5029829;28;20112;-56
2021/07/24 08:17:39;;;;;;;2.22;0.88;;;;;;;34.93;13.47;99499.88;5029165;28;20029;-57
2021/07/24 08:20:06;;;;;;;1.17;0.80;;;;;;;34.46;13.92;99503.09;5031140;28;20037;-58
2021/07/24 08:22:32;;;;;;;1.85;0.88;;;;;;;34.00;14.52;99506.25;5029392;28;20112;-57
2021/07/24 08:24:58;;;;;;;0.80;0.80;;;;;;;34.54;13.96;99492.53;5031418;28;20025;-57
2021/07/24 08:27:25;;;;;;;2.75;0.80;;;;;;;33.31;15.43;99502.16;5032087;28;20059;-55
2021/07/24 08:29:51;;;;;;;1.10;0.77;;;;;;;31.67;17.04;99501.06;5031590;28;20041;-56
2021/07/24 08:32:17;;;;;;;1.45;0.80;;;;;;;30.78;17.85;99508.91;5031704;28;20125;-55
2021/07/24 08:34:42;;;;;;;1.25;0.75;;;;;;;30.40;17.95;99516.38;5031582;28;20041;-51
2021/07/24 08:37:08;;;;;;;1.67;0.65;;;;;;;29.68;18.89;99521.97;5031823;28;20381;-55
2021/07/24 08:39:35;;;;;;;1.65;0.90;;;;;;;28.86;20.07;99528.06;5030964;28;20499;-56
2021/07/24 08:42:03;;;;;;;1.13;0.73;;;;;;;28.08;21.22;99545.16;5041490;28;20104;-54
2021/07/24 08:44:28;;;;;;;1.88;0.82;;;;;;;27.31;21.92;99528.78;5051349;28;20036;-56
2021/07/24 08:46:55;;;;;;;2.35;0.60;;;;;;;26.74;22.33;99529.38;5051383;28;20025;-56
2021/07/24 08:49:20;;;;;;;0.68;0.63;;;;;;;26.41;22.80;99534.34;5049268;28;20029;-54
2021/07/24 08:51:48;;;;;;;0.65;0.65;;;;;;;26.25;22.94;99524.91;5042695;28;20145;-54
2021/07/24 08:54:13;;;;;;;1.45;0.60;;;;;;;26.53;22.94;99534.38;5031189;28;20041;-57
2021/07/24 08:56:46;;;;;;;2.03;0.82;;;;;;;26.81;22.71;99532.84;5030082;28;20029;-53
2021/07/24 08:59:17;;;;;;;0.80;0.73;;;;;;;27.11;22.13;99540.13;5030824;28;20041;-56
2021/07/24 09:01:51;;;;;;;3.17;1.10;;;;;;;27.20;22.62;99540.59;5032318;28;20113;-56
2021/07/24 09:04:16;;;;;;;1.45;0.80;;;;;;;26.61;22.98;99524.94;5031142;28;20052;-54
2021/07/24 09:06:43;;;;;;;1.40;0.80;;;;;;;26.18;23.45;99508.53;5031311;28;20037;-57
2021/07/24 09:09:11;;;;;;;1.63;0.70;;;;;;;26.39;24.13;99546.63;5030580;28;20029;-55
2021/07/24 09:11:37;;;;;;;1.00;0.80;;;;;;;26.26;23.59;99526.56;5032060;28;20033;-54
2021/07/24 09:14:03;;;;;;;1.77;0.90;;;;;;;26.25;23.58;99541.34;5031235;28;20033;-53
2021/07/24 09:16:29;;;;;;;0.50;0.50;;;;;;;25.83;23.99;99501.00;5030781;28;20033;-53
2021/07/24 09:18:58;;;;;;;1.15;0.60;;;;;;;25.64;23.78;99513.91;5030443;28;20036;-54
2021/07/24 09:21:25;;;;;;;2.78;0.73;;;;;;;25.61;24.74;99539.91;5030857;28;20343;-59
2021/07/24 09:23:51;;;;;;;0.50;0.50;;;;;;;25.60;24.11;99530.00;5045662;28;20028;-55
2021/07/24 09:26:33;;;;;;;1.30;0.77;;;;;;;25.64;23.82;99509.28;5050629;28;20037;-56
2021/07/24 09:29:35;;;;;;;2.65;0.60;;;;;;;25.99;23.61;99539.81;5049865;28;20029;-52
2021/07/24 09:32:08;;;;;;;1.23;0.75;;;;;;;26.04;23.84;99507.03;5050135;28;20397;-58
2021/07/24 09:34:42;;;;;;;2.80;0.80;;;;;;;26.76;22.93;99541.78;5037017;28;20105;-59
2021/07/24 09:37:24;;;;;;;1.43;0.80;;;;;;;27.20;22.32;99543.34;5029152;28;20026;-58
2021/07/24 09:39:51;;;;;;;1.45;0.82;;;;;;;27.20;22.44;99532.34;5030854;28;20540;-57
2021/07/24 09:42:18;;;;;;;1.38;0.70;;;;;;;27.33;22.16;99540.34;5030516;28;20038;-55
2021/07/24 09:44:43;;;;;;;1.88;0.85;;;;;;;27.20;22.55;99535.09;5031785;28;20037;-56
2021/07/24 09:47:09;;;;;;;1.45;0.82;;;;;;;26.98;23.31;99543.97;5030264;28;20037;-56
2021/07/24 09:49:36;;;;;;;1.85;0.90;;;;;;;26.72;23.37;99535.09;5030572;28;20026;-57
2021/07/24 09:52:14;;;;;;;1.45;1.08;;;;;;;26.70;23.58;99561.97;5030497;28;20037;-55
2021/07/24 09:54:41;;;;;;;3.17;0.70;;;;;;;26.11;24.33;99559.91;5037499;28;20040;-55
2021/07/24 09:57:07;;;;;;;1.48;1.00;;;;;;;25.77;25.01;99562.25;5050807;28;20036;-56
2021/07/24 09:59:33;;;;;;;3.13;0.90;;;;;;;25.51;25.51;99567.84;5050994;28;20029;-55
2021/07/24 10:02:03;;;;;;;1.45;0.80;;;;;;;25.25;26.05;99566.19;5050919;28;20043;-51
2021/07/24 10:04:33;;;;;;;2.80;0.90;;;;;;;25.00;26.92;99583.50;5044986;28;20040;-55
2021/07/24 10:07:04;;;;;;;0.90;0.70;;;;;;;24.91;26.62;99577.47;5032959;28;20057;-54
2021/07/24 10:09:32;;;;;;;5.68;0.90;;;;;;;24.97;26.52;99586.72;5033891;28;20034;-54
2021/07/24 10:12:01;;;;;;;3.40;0.70;;;;;;;25.05;25.49;99591.88;5034546;28;20037;-55
2021/07/24 10:14:27;;;;;;;0.75;0.65;;;;;;;25.22;25.05;99583.94;5035318;28;20053;-56
2021/07/24 10:16:54;;;;;;;3.20;0.60;;;;;;;25.46;25.01;99595.06;5051302;28;20037;-54
2021/07/24 10:19:22;;;;;;;1.00;0.50;;;;;;;25.45;25.09;99595.28;5053741;28;20033;-55
2021/07/24 10:21:48;;;;;;;1.42;0.75;;;;;;;25.52;24.89;99593.34;5054316;28;20033;-51
2021/07/24 10:24:14;;;;;;;2.65;0.60;;;;;;;25.55;24.45;99590.13;5054190;28;20041;-55
2021/07/24 10:26:48;;;;;;;0.80;0.57;;;;;;;25.50;24.89;99570.81;5036029;28;20034;-56
2021/07/24 10:29:22;;;;;;;0.70;0.65;;;;;;;25.55;25.36;99584.66;5034216;28;20461;-55
2021/07/24 10:32:02;;;;;;;1.92;0.80;;;;;;;25.53;25.29;99588.69;5034185;28;20029;-56
2021/07/24 10:34:31;;;;;;;1.98;0.82;;;;;;;25.32;26.03;99604.50;5033560;28;20092;-56
2021/07/24 10:36:57;;;;;;;2.25;0.90;;;;;;;25.08;25.58;99599.69;5045295;28;20025;-51
2021/07/24 10:39:23;;;;;;;1.65;0.88;;;;;;;24.91;25.10;99595.81;5053939;28;20036;-55
2021/07/24 10:42:10;;;;;;;1.38;0.70;;;;;;;25.01;24.77;99598.88;5053706;28;20366;-54
2021/07/24 10:44:40;;;;;;;0.80;0.68;;;;;;;25.17;24.05;99594.72;5053339;28;20036;-56
2021/07/24 10:47:10;;;;;;;0.88;0.60;;;;;;;25.15;24.32;99598.78;5039454;28;20052;-55
2021/07/24 10:49:35;;;;;;;2.25;0.90;;;;;;;25.28;24.44;99598.63;5033878;28;20124;-54
2021/07/24 10:52:06;;;;;;;1.00;0.70;;;;;;;25.49;24.15;99599.28;5033586;28;20184;-52
2021/07/24 10:54:53;;;;;;;1.00;0.57;;;;;;;25.39;24.46;99594.28;5033328;28;20037;-56
2021/07/24 10:57:43;;;;;;;1.23;0.90;;;;;;;25.49;24.49;99604.75;5034027;28;20102;-58
2021/07/24 11:00:40;;;;;;;1.00;0.70;;;;;;;25.44;24.72;99601.84;5033076;28;20365;-55
2021/07/24 11:03:25;;;;;;;;;;;;;;;25.79;24.38;99603.97;5033722;28;20025;-56
2021/07/24 11:05:50;;;;;;;1.98;0.77;;;;;;;25.33;25.05;99593.31;5032717;28;19980;-54
2021/07/24 11:08:16;;;;;;;1.77;0.90;;;;;;;25.13;25.80;99587.19;5044644;28;20520;-57
2021/07/24 11:11:10;;;;;;;3.80;0.73;;;;;;;25.27;25.81;99607.91;5053199;28;20374;-57
2021/07/24 11:13:46;;;;;;;2.85;1.00;;;;;;;25.14;26.90;99610.78;5052932;28;20067;-54
2021/07/24 11:16:12;;;;;;;1.00;0.70;;;;;;;24.87;26.60;99597.34;5047388;28;20045;-55
2021/07/24 11:18:37;;;;;;;1.73;0.80;;;;;;;24.73;27.27;99608.34;5033371;28;20120;-57
2021/07/24 11:21:03;;;;;;;2.15;0.63;;;;;;;24.58;27.57;99605.94;5033020;28;20057;-55
2021/07/24 11:23:28;;;;;;;2.45;0.88;;;;;;;24.54;27.26;99603.88;5032732;28;20511;-58
2021/07/24 11:26:01;;;;;;;1.00;0.73;;;;;;;24.68;27.41;99621.03;5032535;28;20053;-55
2021/07/24 11:28:27;;;;;;;2.33;0.70;;;;;;;24.75;27.09;99603.53;5037547;28;20108;-57
2021/07/24 11:31:05;;;;;;;1.00;0.80;;;;;;;25.13;26.43;99614.59;5032162;28;20478;-55
2021/07/24 11:33:31;;;;;;;2.90;0.80;;;;;;;25.21;24.81;99614.28;5032400;28;20489;-55
2021/07/24 11:36:02;;;;;;;0.75;0.73;;;;;;;25.22;24.32;99610.50;5037515;28;20021;-59
2021/07/24 11:38:29;;;;;;;0.60;0.47;;;;;;;25.23;23.29;99620.38;5051993;28;20111;-57
2021/07/24 11:41:13;;;;;;;0.98;0.70;;;;;;;25.40;23.88;99636.25;5052547;28;20079;-55